createdAt,value
2022-08-17T00:00:43.262Z,8.40
2022-08-17T00:03:22.718Z,5.50
2022-08-17T00:05:57.240Z,8.00
2022-08-17T00:08:31.707Z,4.70
2022-08-17T00:11:04.255Z,6.20
2022-08-17T00:13:38.800Z,5.30
2022-08-17T00:16:13.026Z,5.20
2022-08-17T00:19:02.080Z,6.80
2022-08-17T00:22:33.039Z,8.40
2022-08-17T00:24:33.746Z,5.50
2022-08-17T00:29:38.369Z,5.70
2022-08-17T00:33:11.613Z,7.00
2022-08-17T00:35:02.960Z,5.10
2022-08-17T00:37:35.780Z,5.70
2022-08-17T00:40:08.686Z,5.50
2022-08-17T00:42:41.778Z,6.30
2022-08-17T00:45:16.430Z,9.50
2022-08-17T00:47:48.810Z,5.90
2022-08-17T00:52:57.825Z,6.70
2022-08-17T00:55:29.690Z,5.40
2022-08-17T01:06:50.634Z,5.60
2022-08-17T01:09:21.367Z,5.70
2022-08-17T01:11:52.193Z,8.30
2022-08-17T01:14:23.108Z,7.40
2022-08-17T01:16:55.538Z,9.50
2022-08-17T01:19:28.679Z,5.30
2022-08-17T01:22:04.834Z,7.00
2022-08-17T01:24:35.356Z,7.00
2022-08-17T01:27:10.183Z,5.90
2022-08-17T01:29:42.576Z,6.40
2022-08-17T01:32:13.201Z,5.90
2022-08-17T01:34:50.176Z,6.80
2022-08-17T01:37:22.700Z,6.30
2022-08-17T01:39:55.721Z,5.80
2022-08-17T01:42:32.449Z,6.00
2022-08-17T01:45:06.478Z,6.00
2022-08-17T01:47:37.432Z,6.10
2022-08-17T01:50:11.215Z,6.60
2022-08-17T01:52:42.344Z,6.00
2022-08-17T01:55:15.353Z,7.40
2022-08-17T01:57:46.357Z,6.50
2022-08-17T02:00:18.383Z,6.00
2022-08-17T02:02:48.877Z,5.80
2022-08-17T02:05:19.586Z,6.60
2022-08-17T02:07:59.945Z,5.80
2022-08-17T02:10:34.191Z,5.60
2022-08-17T02:13:05.085Z,7.90
2022-08-17T02:15:35.631Z,5.70
2022-08-17T02:18:07.003Z,6.80
2022-08-17T02:20:41.711Z,6.90
2022-08-17T02:23:14.294Z,5.70
2022-08-17T02:25:47.632Z,6.70
2022-08-17T02:28:18.407Z,6.20
2022-08-17T02:31:01.909Z,6.50
2022-08-17T02:33:41.652Z,5.90
2022-08-17T02:36:13.831Z,8.50
2022-08-17T02:38:44.818Z,6.20
2022-08-17T02:41:15.235Z,6.70
2022-08-17T02:43:45.607Z,5.40
2022-08-17T02:46:15.935Z,6.80
2022-08-17T02:48:46.326Z,8.90
2022-08-17T02:51:17.513Z,7.10
2022-08-17T02:53:48.181Z,7.20
2022-08-17T02:56:18.673Z,7.60
2022-08-17T02:58:49.161Z,7.00
2022-08-17T03:01:20.290Z,5.60
2022-08-17T03:03:50.660Z,6.30
2022-08-17T03:06:21.021Z,6.40
2022-08-17T03:08:52.285Z,6.40
2022-08-17T03:11:23.541Z,6.40
2022-08-17T03:13:53.913Z,5.70
2022-08-17T03:16:24.282Z,6.50
2022-08-17T03:18:55.125Z,6.90
2022-08-17T03:21:25.460Z,6.60
2022-08-17T03:23:55.780Z,6.60
2022-08-17T03:26:29.838Z,5.80
2022-08-17T03:29:00.549Z,6.10
2022-08-17T03:31:31.427Z,6.60
2022-08-17T03:34:01.968Z,6.20
2022-08-17T03:36:32.359Z,9.60
2022-08-17T03:39:07.059Z,6.30
2022-08-17T03:41:37.832Z,7.50
2022-08-17T03:44:08.123Z,6.50
2022-08-17T03:46:56.104Z,8.40
2022-08-17T03:49:44.277Z,7.70
2022-08-17T03:52:32.214Z,5.70
2022-08-17T03:55:20.265Z,7.30
2022-08-17T03:58:06.138Z,7.10
2022-08-17T04:00:39.670Z,6.00
2022-08-17T04:03:10.258Z,7.50
2022-08-17T04:05:41.268Z,5.50
2022-08-17T04:08:12.172Z,5.40
2022-08-17T04:10:45.238Z,5.90
2022-08-17T04:13:15.834Z,6.10
2022-08-17T04:15:56.126Z,6.90
2022-08-17T04:18:26.923Z,7.50
2022-08-17T04:20:57.208Z,5.90
2022-08-17T04:23:33.604Z,6.70
2022-08-17T04:26:04.751Z,6.60
2022-08-17T04:28:35.164Z,5.80
2022-08-17T04:31:05.580Z,7.50
2022-08-17T04:33:38.761Z,6.90
2022-08-17T04:36:10.599Z,6.10
2022-08-17T04:38:42.736Z,6.40
2022-08-17T04:41:31.321Z,5.30
2022-08-17T04:44:04.479Z,8.20
2022-08-17T04:46:37.236Z,7.50
2022-08-17T04:49:09.839Z,6.30
2022-08-17T04:54:20.204Z,6.40
2022-08-17T04:56:51.693Z,9.70
2022-08-17T04:59:25.806Z,6.40
2022-08-17T05:01:56.996Z,7.60
2022-08-17T05:04:35.191Z,6.20
2022-08-17T05:07:06.626Z,7.60
2022-08-17T05:09:37.644Z,6.00
2022-08-17T05:12:10.479Z,6.40
2022-08-17T05:14:43.213Z,6.40
2022-08-17T05:19:43.186Z,6.30
2022-08-17T05:22:13.684Z,5.80
2022-08-17T05:24:53.394Z,6.50
2022-08-17T05:27:25.032Z,6.30
2022-08-17T05:30:02.700Z,7.70
2022-08-17T05:32:38.982Z,6.20
2022-08-17T05:35:11.800Z,7.00
2022-08-17T05:37:42.428Z,6.80
2022-08-17T05:40:14.375Z,6.20
2022-08-17T05:42:45.478Z,7.70
2022-08-17T05:45:39.886Z,5.10
2022-08-17T05:50:47.321Z,6.50
2022-08-17T05:53:25.735Z,7.20
2022-08-17T05:56:06.400Z,6.50
2022-08-17T05:59:05.399Z,5.80
2022-08-17T06:01:40.093Z,8.40
2022-08-17T06:04:21.226Z,5.80
2022-08-17T06:06:56.325Z,6.00
2022-08-17T06:09:39.859Z,7.60
2022-08-17T06:12:23.263Z,5.50
2022-08-17T06:15:03.345Z,6.70
2022-08-17T06:17:34.252Z,5.60
2022-08-17T06:20:09.636Z,7.60
2022-08-17T06:22:47.382Z,8.50
2022-08-17T06:25:31.335Z,6.30
2022-08-17T06:28:06.020Z,6.50
2022-08-17T06:30:59.428Z,7.20
2022-08-17T06:33:36.013Z,8.30
2022-08-17T06:36:16.024Z,7.20
2022-08-17T06:38:56.687Z,10.10
2022-08-17T06:41:35.716Z,5.90
2022-08-17T06:44:43.144Z,7.00
2022-08-17T06:47:28.418Z,11.90
2022-08-17T06:50:10.224Z,6.60
2022-08-17T06:52:51.811Z,7.90
2022-08-17T06:55:26.356Z,8.70
2022-08-17T06:58:02.065Z,7.70
2022-08-17T07:00:47.276Z,6.90
2022-08-17T07:03:26.714Z,7.10
2022-08-17T07:06:00.724Z,6.20
2022-08-17T07:08:35.589Z,12.40
2022-08-17T07:11:10.010Z,7.70
2022-08-17T07:13:51.764Z,6.40
2022-08-17T07:16:27.888Z,7.90
2022-08-17T07:18:59.511Z,7.80
2022-08-17T07:21:40.836Z,6.80
2022-08-17T07:24:29.412Z,8.60
2022-08-17T07:27:25.168Z,8.10
2022-08-17T07:29:58.796Z,8.30
2022-08-17T07:32:32.810Z,6.30
2022-08-17T07:35:16.701Z,9.50
2022-08-17T07:37:53.101Z,10.00
2022-08-17T07:40:33.435Z,6.40
2022-08-17T07:43:18.805Z,8.80
2022-08-17T07:46:15.792Z,7.40
2022-08-17T07:48:49.605Z,6.00
2022-08-17T07:51:29.620Z,10.80
2022-08-17T07:54:14.020Z,8.80
2022-08-17T07:56:48.399Z,6.40
2022-08-17T07:59:23.336Z,9.20
2022-08-17T08:02:08.046Z,9.80
2022-08-17T08:04:59.695Z,8.30
2022-08-17T08:07:37.043Z,8.50
2022-08-17T08:10:12.763Z,8.90
2022-08-17T08:12:45.566Z,9.20
2022-08-17T08:15:19.483Z,8.50
2022-08-17T08:17:53.241Z,7.70
2022-08-17T08:20:53.045Z,7.20
2022-08-17T08:23:25.549Z,7.30
2022-08-17T08:26:03.520Z,10.30
2022-08-17T08:28:37.878Z,10.00
2022-08-17T08:31:16.318Z,7.20
2022-08-17T08:33:56.277Z,11.00
2022-08-17T08:37:15.959Z,9.50
2022-08-17T08:39:34.577Z,8.00
2022-08-17T08:42:09.029Z,7.20
2022-08-17T08:45:00.350Z,9.10
2022-08-17T08:47:58.134Z,8.80
2022-08-17T08:50:42.780Z,7.60
2022-08-17T08:53:21.282Z,9.10
2022-08-17T08:55:56.091Z,9.10
2022-08-17T08:58:41.715Z,7.50
2022-08-17T09:01:18.750Z,7.60
2022-08-17T09:04:21.415Z,7.00
2022-08-17T09:07:01.824Z,8.80
2022-08-17T09:09:41.224Z,10.40
2022-08-17T09:12:17.798Z,9.10
2022-08-17T09:14:59.473Z,8.90
2022-08-17T09:17:38.196Z,9.60
2022-08-17T09:20:28.088Z,8.60
2022-08-17T09:23:02.688Z,9.00
2022-08-17T09:25:36.413Z,7.90
2022-08-17T09:28:09.350Z,8.10
2022-08-17T09:30:45.486Z,7.90
2022-08-17T09:33:19.408Z,8.00
2022-08-17T09:35:55.176Z,8.60
2022-08-17T09:38:32.515Z,7.60
2022-08-17T09:41:09.947Z,8.10
2022-08-17T09:43:44.630Z,11.30
2022-08-17T09:46:20.516Z,7.90
2022-08-17T09:48:56.143Z,9.20
2022-08-17T09:51:32.387Z,9.60
2022-08-17T09:54:37.091Z,7.80
2022-08-17T09:57:27.918Z,11.40
2022-08-17T10:00:10.060Z,9.80
2022-08-17T10:03:17.933Z,10.50
2022-08-17T10:05:56.706Z,11.20
2022-08-17T10:08:35.115Z,9.30
2022-08-17T10:11:11.874Z,9.10
2022-08-17T10:13:52.770Z,10.50
2022-08-17T10:16:30.034Z,8.80
2022-08-17T10:19:10.422Z,8.60
2022-08-17T10:22:00.971Z,8.40
2022-08-17T10:25:21.701Z,7.60
2022-08-17T10:27:48.658Z,12.10
2022-08-17T10:30:21.801Z,7.60
2022-08-17T10:32:55.287Z,8.80
2022-08-17T10:35:40.399Z,8.50
2022-08-17T10:38:34.127Z,11.00
2022-08-17T10:41:15.440Z,10.70
2022-08-17T10:44:28.364Z,11.40
2022-08-17T10:46:52.351Z,8.40
2022-08-17T10:49:33.030Z,10.30
2022-08-17T10:52:05.427Z,9.00
2022-08-17T10:54:39.607Z,9.10
2022-08-17T10:57:37.095Z,8.30
2022-08-17T11:00:15.901Z,13.70
2022-08-17T11:02:50.832Z,8.30
2022-08-17T11:05:44.597Z,9.80
2022-08-17T11:08:48.400Z,8.20
2022-08-17T11:11:38.433Z,11.20
2022-08-17T11:14:20.475Z,10.60
2022-08-17T11:17:02.700Z,9.20
2022-08-17T11:19:49.830Z,8.40
2022-08-17T11:22:47.739Z,8.30
2022-08-17T11:25:20.255Z,13.10
2022-08-17T11:27:54.389Z,8.40
2022-08-17T11:30:50.866Z,11.20
2022-08-17T11:33:58.804Z,10.30
2022-08-17T11:37:01.743Z,10.60
2022-08-17T11:39:51.956Z,10.90
2022-08-17T11:42:31.968Z,9.70
2022-08-17T11:45:09.411Z,9.50
2022-08-17T11:48:26.627Z,9.70
2022-08-17T11:51:16.100Z,10.20
2022-08-17T11:54:31.742Z,9.00
2022-08-17T11:56:58.902Z,9.70
2022-08-17T12:00:01.889Z,9.00
2022-08-17T12:02:48.212Z,10.30
2022-08-17T12:05:39.954Z,9.60
2022-08-17T12:08:18.423Z,8.30
2022-08-17T12:10:57.798Z,8.50
2022-08-17T12:13:32.790Z,6.90
2022-08-17T12:18:42.835Z,8.40
2022-08-17T12:21:40.608Z,9.40
2022-08-17T12:24:20.339Z,7.40
2022-08-17T12:26:58.256Z,7.20
2022-08-17T12:29:35.938Z,7.60
2022-08-17T12:32:18.514Z,7.10
2022-08-17T12:34:51.737Z,6.90
2022-08-17T12:37:26.588Z,6.60
2022-08-17T12:40:02.601Z,6.70
2022-08-17T12:42:37.617Z,6.10
2022-08-17T12:45:23.509Z,6.60
2022-08-17T12:48:06.530Z,6.70
2022-08-17T12:50:40.223Z,7.00
2022-08-17T12:53:15.755Z,6.70
2022-08-17T12:55:47.640Z,8.10
2022-08-17T12:58:22.367Z,7.00
2022-08-17T13:06:32.054Z,6.30
2022-08-17T13:09:12.718Z,6.70
2022-08-17T13:11:50.625Z,6.20
2022-08-17T13:14:21.653Z,8.90
2022-08-17T13:16:56.175Z,6.40
2022-08-17T13:19:39.734Z,7.60
2022-08-17T13:22:13.323Z,7.10
2022-08-17T13:24:54.095Z,7.30
2022-08-17T13:27:25.981Z,7.70
2022-08-17T13:29:59.457Z,11.10
2022-08-17T13:32:43.687Z,11.30
2022-08-17T13:35:39.892Z,7.10
2022-08-17T13:38:13.969Z,7.10
2022-08-17T13:40:50.883Z,7.30
2022-08-17T13:43:49.489Z,8.40
2022-08-17T13:46:24.814Z,6.90
2022-08-17T13:49:04.032Z,7.60
2022-08-17T13:51:36.827Z,7.90
2022-08-17T13:54:21.894Z,7.60
2022-08-17T13:57:00.395Z,6.90
2022-08-17T13:59:53.856Z,8.40
2022-08-17T14:02:28.825Z,8.10
2022-08-17T14:05:01.971Z,7.30
2022-08-17T14:07:39.539Z,9.00
2022-08-17T14:10:14.229Z,7.30
2022-08-17T14:12:45.799Z,7.00
2022-08-17T14:15:24.418Z,6.70
2022-08-17T14:18:17.669Z,8.00
2022-08-17T14:20:48.050Z,8.80
2022-08-17T14:23:18.974Z,6.70
2022-08-17T14:25:49.376Z,7.50
2022-08-17T14:28:19.730Z,7.70
2022-08-17T14:30:50.338Z,6.70
2022-08-17T14:33:22.528Z,6.60
2022-08-17T14:35:53.598Z,6.80
2022-08-17T14:38:24.246Z,5.70
2022-08-17T14:40:54.585Z,5.90
2022-08-17T14:43:24.929Z,6.60
2022-08-17T14:45:55.312Z,5.70
2022-08-17T14:48:25.689Z,8.20
2022-08-17T14:50:56.645Z,6.30
2022-08-17T14:53:27.015Z,5.50
2022-08-17T14:55:57.619Z,6.90
2022-08-17T14:58:29.514Z,7.80
2022-08-17T15:01:00.063Z,5.70
2022-08-17T15:03:30.452Z,5.60
2022-08-17T15:06:00.790Z,5.70
2022-08-17T15:08:31.705Z,6.00
2022-08-17T15:11:03.654Z,6.70
2022-08-17T15:13:34.191Z,6.20
2022-08-17T15:16:05.395Z,6.90
2022-08-17T15:18:36.090Z,6.10
2022-08-17T15:21:07.157Z,5.50
2022-08-17T15:23:38.527Z,6.00
2022-08-17T15:26:09.209Z,6.90
2022-08-17T15:28:39.538Z,5.80
2022-08-17T15:31:09.916Z,6.20
2022-08-17T15:33:40.939Z,7.40
2022-08-17T15:36:12.205Z,6.40
2022-08-17T15:38:44.522Z,5.70
2022-08-17T15:41:18.171Z,6.20
2022-08-17T15:43:49.933Z,7.90
2022-08-17T15:46:22.513Z,5.70
2022-08-17T15:48:58.082Z,7.50
2022-08-17T15:51:30.230Z,10.40
2022-08-17T15:54:04.275Z,6.80
2022-08-17T15:56:49.893Z,6.90
2022-08-17T15:59:20.324Z,5.80
2022-08-17T16:03:13.144Z,7.30
2022-08-17T16:04:43.993Z,7.50
2022-08-17T16:07:16.240Z,6.20
2022-08-17T16:09:46.869Z,7.60
2022-08-17T16:12:19.694Z,8.90
2022-08-17T16:14:53.486Z,10.50
2022-08-17T16:17:39.259Z,7.80
2022-08-17T16:20:20.421Z,6.30
2022-08-17T16:22:52.564Z,7.20
2022-08-17T16:25:47.104Z,6.40
2022-08-17T16:28:35.706Z,7.20
2022-08-17T16:31:08.103Z,8.40
2022-08-17T16:33:39.707Z,7.30
2022-08-17T16:36:10.770Z,5.50
2022-08-17T16:38:41.114Z,6.20
2022-08-17T16:41:12.698Z,5.60
2022-08-17T16:46:11.994Z,7.00
2022-08-17T16:48:44.518Z,6.00
2022-08-17T16:51:14.873Z,5.80
2022-08-17T16:53:45.238Z,6.20
2022-08-17T16:56:25.301Z,6.70
2022-08-17T16:58:57.136Z,8.40
2022-08-17T17:01:41.735Z,8.80
2022-08-17T17:04:15.212Z,5.90
2022-08-17T17:06:54.624Z,6.00
2022-08-17T17:09:29.252Z,7.10
2022-08-17T17:12:01.017Z,7.30
2022-08-17T17:14:33.282Z,7.50
2022-08-17T17:17:06.471Z,5.50
2022-08-17T17:19:41.422Z,5.70
2022-08-17T17:22:17.233Z,6.20
2022-08-17T17:24:57.317Z,6.00
2022-08-17T17:27:33.213Z,7.00
2022-08-17T17:30:09.920Z,5.40
2022-08-17T17:32:45.915Z,5.70
2022-08-17T17:35:20.732Z,7.90
2022-08-17T17:37:52.579Z,6.50
2022-08-17T17:42:56.017Z,9.30
2022-08-17T17:45:31.279Z,6.50
2022-08-17T17:48:01.682Z,7.70
2022-08-17T17:50:45.683Z,5.90
2022-08-17T17:53:26.115Z,7.20
2022-08-17T17:56:18.744Z,6.80
2022-08-17T17:59:05.644Z,6.20
2022-08-17T18:01:48.883Z,8.40
2022-08-17T18:04:24.907Z,7.70
2022-08-17T18:07:10.130Z,8.70
2022-08-17T18:10:02.642Z,10.70
2022-08-17T18:12:37.377Z,7.00
2022-08-17T18:15:31.698Z,7.10
2022-08-17T18:18:28.720Z,7.80
2022-08-17T18:21:06.385Z,6.50
2022-08-17T18:23:36.908Z,7.10
2022-08-17T18:26:08.628Z,9.10
2022-08-17T18:28:44.157Z,6.40
2022-08-17T18:31:20.042Z,7.10
2022-08-17T18:33:52.401Z,6.90
2022-08-17T18:39:12.883Z,8.50
2022-08-17T18:41:45.319Z,7.30
2022-08-17T18:44:29.052Z,7.10
2022-08-17T18:47:18.443Z,7.10
2022-08-17T18:49:53.577Z,7.50
2022-08-17T18:52:28.958Z,8.40
2022-08-17T18:55:09.832Z,7.00
2022-08-17T18:57:42.965Z,7.40
2022-08-17T19:00:21.244Z,6.80
2022-08-17T19:02:54.624Z,8.40
2022-08-17T19:05:36.214Z,7.60
2022-08-17T19:08:22.497Z,7.60
2022-08-17T19:10:54.365Z,7.40
2022-08-17T19:13:29.813Z,7.70
2022-08-17T19:16:07.758Z,7.30
2022-08-17T19:18:48.862Z,7.20
2022-08-17T19:21:24.597Z,8.30
2022-08-17T19:23:58.954Z,7.40
2022-08-17T19:26:50.692Z,7.40
2022-08-17T19:40:00.834Z,8.20
2022-08-17T19:42:40.710Z,7.30
2022-08-17T19:45:17.359Z,7.60
2022-08-17T19:47:56.044Z,9.60
2022-08-17T19:50:38.437Z,7.30
2022-08-17T19:53:14.944Z,8.00
2022-08-17T19:55:52.345Z,10.00
2022-08-17T19:58:34.730Z,8.20
2022-08-17T20:01:08.071Z,7.20
2022-08-17T20:03:57.849Z,8.80
2022-08-17T20:06:31.765Z,8.80
2022-08-17T20:09:15.266Z,8.10
2022-08-17T20:11:49.771Z,7.60
2022-08-17T20:14:23.672Z,10.60
2022-08-17T20:16:58.207Z,9.10
2022-08-17T20:19:36.997Z,8.50
2022-08-17T20:22:13.261Z,7.50
2022-08-17T20:24:47.945Z,8.00
2022-08-17T20:27:20.364Z,9.40
2022-08-17T20:36:36.985Z,11.90
2022-08-17T20:39:07.650Z,7.30
2022-08-17T20:42:05.872Z,7.60
2022-08-17T20:44:38.389Z,9.70
2022-08-17T20:47:12.637Z,7.70
2022-08-17T20:49:50.708Z,7.20
2022-08-17T20:52:50.733Z,7.90
2022-08-17T20:55:54.768Z,9.50
2022-08-17T20:58:47.197Z,8.90
2022-08-17T21:01:25.266Z,8.50
2022-08-17T21:09:53.505Z,8.10
2022-08-17T21:12:41.450Z,8.30
2022-08-17T21:15:24.109Z,8.70
2022-08-17T21:20:34.125Z,11.30
2022-08-17T21:23:23.900Z,8.10
2022-08-17T21:26:09.496Z,8.80
2022-08-17T21:29:00.805Z,8.80
2022-08-17T21:31:36.247Z,11.10
2022-08-17T21:34:34.008Z,9.20
2022-08-17T21:37:34.865Z,10.70
2022-08-17T21:40:23.359Z,9.00
2022-08-17T21:43:01.049Z,11.30
2022-08-17T21:45:35.344Z,9.60
2022-08-17T21:48:13.914Z,9.80
2022-08-17T21:50:49.472Z,10.00
2022-08-17T21:53:32.250Z,10.80
2022-08-17T21:56:04.146Z,10.10
2022-08-17T21:58:39.224Z,11.80
2022-08-17T22:01:20.426Z,10.20
2022-08-17T22:03:59.040Z,11.30
2022-08-17T22:06:34.604Z,12.70
2022-08-17T22:09:14.616Z,10.50
2022-08-17T22:11:54.910Z,11.40
2022-08-17T22:14:53.243Z,10.90
2022-08-17T22:17:21.930Z,10.20
2022-08-17T22:19:54.160Z,10.90
2022-08-17T22:22:33.234Z,12.40
2022-08-17T22:25:06.788Z,12.70
2022-08-17T22:27:56.670Z,11.00
2022-08-17T22:30:35.390Z,11.80
2022-08-17T22:33:40.012Z,11.70
2022-08-17T22:36:25.157Z,13.70
2022-08-17T22:38:57.867Z,9.30
2022-08-17T22:44:17.707Z,10.20
2022-08-17T22:47:06.763Z,11.60
2022-08-17T22:49:53.513Z,10.80
2022-08-17T22:52:34.028Z,10.30
2022-08-17T22:55:30.488Z,10.30
2022-08-17T22:58:19.115Z,10.70
2022-08-17T23:00:51.077Z,10.50
2022-08-17T23:03:24.591Z,10.00
2022-08-17T23:06:08.078Z,9.90
2022-08-17T23:08:48.627Z,12.10
2022-08-17T23:11:19.855Z,10.60
2022-08-17T23:14:08.293Z,11.40
2022-08-17T23:16:40.973Z,11.90
2022-08-17T23:21:41.535Z,10.90
2022-08-17T23:24:14.241Z,12.20
2022-08-17T23:26:47.596Z,12.90
2022-08-17T23:29:20.294Z,11.00
2022-08-17T23:31:55.585Z,11.30
2022-08-17T23:34:28.116Z,12.80
2022-08-17T23:39:32.164Z,11.90
2022-08-17T23:42:08.093Z,11.10
2022-08-17T23:44:41.049Z,11.30
2022-08-17T23:47:12.722Z,11.10
2022-08-17T23:49:44.282Z,11.30
2022-08-17T23:52:18.040Z,11.30
2022-08-17T23:54:50.973Z,12.20
2022-08-17T23:57:33.234Z,11.70
